Latest Weather Observations for Ocean Reef

IDW60901

Issued at 11:11 pm WST Thursday 25 August 2016 (issued every 10 minutes, with the page automatically refreshed every 10 minutes)

About weather observations | Map of Perth area stations | Latest observations for Perth area | Other Formats
Station Details ID: 009214 Name: OCEAN REEF Lat: -31.76 Lon: 115.73 Height: 10.0 m
Data from the previous 72 hours. | See also: Recent months at Ocean Reef
Date/Time
WST
Temp
°C
App
Temp
°C
Dew
Point
°C
Rel
Hum
%
Delta-T
°C
Wind Press
QNH
hPa
Press
MSL
hPa
Rain since
9am
mm
Dir  Spd
km/h
Gust
km/h
Spd
kts
Gust
kts
25/11:00pm - - - - - ENE 22 32 12 17 - - -
25/10:30pm - - - - - ENE 22 30 12 16 - - -
25/10:00pm - - - - - ENE 20 28 11 15 - - -
25/09:30pm - - - - - E 15 20 8 11 - - -
25/09:00pm - - - - - E 13 17 7 9 - - -
25/08:30pm - - - - - ESE 13 17 7 9 - - -
25/08:00pm - - - - - ESE 9 13 5 7 - - -
25/07:30pm - - - - - ENE 11 15 6 8 - - -
25/07:00pm - - - - - ENE 11 15 6 8 - - -
25/06:30pm - - - - - E 9 13 5 7 - - -
25/06:00pm - - - - - E 11 17 6 9 - - -
25/05:30pm - - - - - ENE 11 19 6 10 - - -
25/05:00pm - - - - - ENE 19 28 10 15 - - -
25/04:30pm - - - - - ENE 17 30 9 16 - - -
25/04:00pm - - - - - ENE 17 32 9 17 - - -
25/03:30pm - - - - - NE 24 35 13 19 - - -
25/03:00pm - - - - - ENE 22 33 12 18 - - -
25/02:30pm - - - - - ENE 19 33 10 18 - - -
25/02:00pm - - - - - NE 22 37 12 20 - - -
25/01:30pm - - - - - ENE 20 32 11 17 - - -
25/01:00pm - - - - - ENE 22 33 12 18 - - -
25/12:30pm - - - - - E 22 32 12 17 - - -
25/12:00pm - - - - - ENE 20 30 11 16 - - -
25/11:30am - - - - - NE 20 30 11 16 - - -
25/11:00am - - - - - ENE 24 35 13 19 - - -
25/10:30am - - - - - ENE 26 37 14 20 - - -
25/10:00am - - - - - ENE 28 37 15 20 - - -
25/09:30am - - - - - ENE 30 39 16 21 - - -
25/09:00am - - - - - ENE 28 39 15 21 - - -
25/08:30am - - - - - ENE 26 37 14 20 - - -
25/08:00am - - - - - ENE 22 30 12 16 - - -
25/07:30am - - - - - ENE 24 32 13 17 - - -
25/07:00am - - - - - ENE 24 32 13 17 - - -
25/06:30am - - - - - ENE 24 32 13 17 - - -
25/06:00am - - - - - ENE 24 32 13 17 - - -
25/05:30am - - - - - ENE 24 33 13 18 - - -
25/05:00am - - - - - ENE 22 33 12 18 - - -
25/04:30am - - - - - E 22 33 12 18 - - -
25/04:00am - - - - - E 19 28 10 15 - - -
25/03:30am - - - - - E 20 28 11 15 - - -
25/03:00am - - - - - E 20 28 11 15 - - -
25/02:30am - - - - - E 20 30 11 16 - - -
25/02:00am - - - - - E 20 33 11 18 - - -
25/01:30am - - - - - E 20 28 11 15 - - -
25/01:00am - - - - - E 13 17 7 9 - - -
25/12:30am - - - - - E 11 15 6 8 - - -
25/12:00am - - - - - E 15 19 8 10 - - -
 
Date/Time
WST
Temp
°C
App
Temp
°C
Dew
Point
°C
Rel
Hum
%
Delta-T
°C
Wind Press
QNH
hPa
Press
MSL
hPa
Rain since
9am
mm
Dir  Spd
km/h
Gust
km/h
Spd
kts
Gust
kts
24/11:30pm - - - - - ESE 13 17 7 9 - - -
24/11:00pm - - - - - E 11 13 6 7 - - -
24/10:30pm - - - - - E 13 19 7 10 - - -
24/10:00pm - - - - - ESE 11 15 6 8 - - -
24/09:30pm - - - - - ESE 9 11 5 6 - - -
24/09:00pm - - - - - ESE 11 13 6 7 - - -
24/08:30pm - - - - - ESE 13 15 7 8 - - -
24/08:00pm - - - - - ESE 13 15 7 8 - - -
24/07:30pm - - - - - E 11 13 6 7 - - -
24/07:00pm - - - - - ENE 9 11 5 6 - - -
24/06:30pm - - - - - E 11 15 6 8 - - -
24/06:00pm - - - - - ENE 13 20 7 11 - - -
24/05:30pm - - - - - E 15 22 8 12 - - -
24/05:00pm - - - - - E 17 30 9 16 - - -
24/04:30pm - - - - - E 17 28 9 15 - - -
24/04:00pm - - - - - E 19 30 10 16 - - -
24/03:30pm - - - - - ENE 17 30 9 16 - - -
24/03:00pm - - - - - E 17 26 9 14 - - -
24/02:30pm - - - - - ENE 19 30 10 16 - - -
24/02:00pm - - - - - E 17 26 9 14 - - -
24/01:30pm - - - - - E 15 24 8 13 - - -
24/01:00pm - - - - - ESE 17 28 9 15 - - -
24/12:30pm - - - - - E 13 22 7 12 - - -
24/12:00pm - - - - - E 15 26 8 14 - - -
24/11:30am - - - - - ENE 17 28 9 15 - - -
24/11:00am - - - - - E 15 24 8 13 - - -
24/10:30am - - - - - ENE 20 32 11 17 - - -
24/10:00am - - - - - ENE 19 28 10 15 - - -
24/09:30am - - - - - E 20 30 11 16 - - -
24/09:00am - - - - - E 20 28 11 15 - - -
24/08:30am - - - - - E 22 32 12 17 - - -
24/08:00am - - - - - ENE 20 32 11 17 - - -
24/07:30am - - - - - ENE 20 30 11 16 - - -
24/07:00am - - - - - ENE 20 30 11 16 - - -
24/06:30am - - - - - ENE 17 28 9 15 - - -
24/06:00am - - - - - ENE 17 26 9 14 - - -
24/05:30am - - - - - ENE 17 22 9 12 - - -
24/05:00am - - - - - E 15 19 8 10 - - -
24/04:30am - - - - - E 15 19 8 10 - - -
24/04:00am - - - - - E 15 19 8 10 - - -
24/03:30am - - - - - ENE 15 19 8 10 - - -
24/03:00am - - - - - E 13 19 7 10 - - -
24/02:30am - - - - - E 15 19 8 10 - - -
24/02:00am - - - - - E 13 19 7 10 - - -
24/01:30am - - - - - E 15 19 8 10 - - -
24/01:00am - - - - - E 13 17 7 9 - - -
24/12:30am - - - - - E 13 17 7 9 - - -
24/12:00am - - - - - E 13 15 7 8 - - -
 
Date/Time
WST
Temp
°C
App
Temp
°C
Dew
Point
°C
Rel
Hum
%
Delta-T
°C
Wind Press
QNH
hPa
Press
MSL
hPa
Rain since
9am
mm
Dir  Spd
km/h
Gust
km/h
Spd
kts
Gust
kts
23/11:30pm - - - - - E 13 15 7 8 - - -
23/11:00pm - - - - - ENE 13 17 7 9 - - -
23/10:30pm - - - - - E 13 17 7 9 - - -
23/10:00pm - - - - - ENE 13 15 7 8 - - -
23/09:30pm - - - - - E 13 15 7 8 - - -
23/09:00pm - - - - - E 13 13 7 7 - - -
23/08:30pm - - - - - ENE 13 13 7 7 - - -
23/08:00pm - - - - - ENE 11 13 6 7 - - -
23/07:30pm - - - - - ENE 11 13 6 7 - - -
23/07:00pm - - - - - ENE 11 13 6 7 - - -
23/06:30pm - - - - - ENE 9 13 5 7 - - -
23/06:00pm - - - - - ENE 11 13 6 7 - - -
23/05:30pm - - - - - ESE 7 9 4 5 - - -
23/05:00pm - - - - - SSW 17 22 9 12 - - -
23/04:30pm - - - - - SSW 22 28 12 15 - - -
23/04:00pm - - - - - SW 19 22 10 12 - - -
23/03:30pm - - - - - SW 20 26 11 14 - - -
23/03:00pm - - - - - SW 19 22 10 12 - - -
23/02:30pm - - - - - SW 20 26 11 14 - - -
23/02:00pm - - - - - SSW 17 19 9 10 - - -
23/01:30pm - - - - - S 13 19 7 10 - - -
23/01:00pm - - - - - SE 15 22 8 12 - - -
23/12:30pm - - - - - E 15 24 8 13 - - -
23/12:00pm - - - - - ESE 19 26 10 14 - - -
23/11:30am - - - - - SE 22 32 12 17 - - -
23/11:00am - - - - - ESE 19 30 10 16 - - -
23/10:30am - - - - - ESE 19 30 10 16 - - -
23/10:00am - - - - - ESE 17 28 9 15 - - -
23/09:30am - - - - - ESE 13 20 7 11 - - -
23/09:00am - - - - - E 15 20 8 11 - - -
23/08:30am - - - - - E 11 17 6 9 - - -
23/08:00am - - - - - E 15 19 8 10 - - -
23/07:30am - - - - - E 15 19 8 10 - - -
23/07:00am - - - - - ENE 13 15 7 8 - - -
23/06:30am - - - - - ENE 13 15 7 8 - - -
23/06:00am - - - - - ENE 13 15 7 8 - - -
23/05:30am - - - - - E 11 13 6 7 - - -
23/05:00am - - - - - ENE 13 17 7 9 - - -
23/04:30am - - - - - ENE 15 19 8 10 - - -
23/04:00am - - - - - ENE 15 17 8 9 - - -
23/03:30am - - - - - ENE 13 17 7 9 - - -
23/03:00am - - - - - E 13 17 7 9 - - -
23/02:30am - - - - - ENE 13 15 7 8 - - -
23/02:00am - - - - - E 13 17 7 9 - - -
23/01:30am - - - - - E 15 17 8 9 - - -
23/01:00am - - - - - E 13 15 7 8 - - -
23/12:30am - - - - - E 15 17 8 9 - - -
23/12:00am - - - - - ESE 11 11 6 6 - - -
 
Date/Time
WST
Temp
°C
App
Temp
°C
Dew
Point
°C
Rel
Hum
%
Delta-T
°C
Wind Press
QNH
hPa
Press
MSL
hPa
Rain since
9am
mm
Dir  Spd
km/h
Gust
km/h
Spd
kts
Gust
kts
22/11:30pm - - - - - ESE 13 15 7 8 - - -

Latest Capital City Observations: Canberra | Sydney | Melbourne | Brisbane | Adelaide | Perth | Hobart | Darwin

Other Formats:

Comma delimited format used in spreadsheet applications
http://www.bom.gov.au/fwo/IDW60901/IDW60901.94607.axf

JavaScript Object Notation format (JSON) in row-major order
http://www.bom.gov.au/fwo/IDW60901/IDW60901.94607.json